createdAt,value
2022-09-28T04:02:35.558Z,5.80
2022-09-28T04:05:02.389Z,2.88
2022-09-28T04:07:31.020Z,5.68
2022-09-28T04:09:58.443Z,4.90
2022-09-28T04:12:25.019Z,4.55
2022-09-28T04:14:51.617Z,4.50
2022-09-28T04:17:18.432Z,4.65
2022-09-28T04:19:45.001Z,4.03
2022-09-28T04:22:11.527Z,5.07
2022-09-28T04:24:38.311Z,6.90
2022-09-28T04:27:25.054Z,7.20
2022-09-28T04:29:59.975Z,5.38
2022-09-28T04:32:27.027Z,4.55
2022-09-28T04:34:57.000Z,4.77
2022-09-28T04:37:23.635Z,5.53
2022-09-28T04:39:53.265Z,6.43
2022-09-28T04:42:20.327Z,5.60
2022-09-28T04:44:49.641Z,3.63
2022-09-28T04:47:16.131Z,2.90
2022-09-28T04:49:43.227Z,4.45
2022-09-28T04:52:15.821Z,3.13
2022-09-28T04:54:44.682Z,6.63
2022-09-28T04:57:11.239Z,3.88
2022-09-28T04:59:37.795Z,5.83
2022-09-28T05:02:05.322Z,4.65
2022-09-28T05:04:31.971Z,5.38
2022-09-28T05:06:58.664Z,5.25
2022-09-28T05:09:25.395Z,3.65
2022-09-28T05:11:54.921Z,6.60
2022-09-28T05:14:24.735Z,4.93
2022-09-28T05:16:51.519Z,4.07
2022-09-28T05:19:18.495Z,6.07
2022-09-28T05:21:45.889Z,3.17
2022-09-28T05:24:12.793Z,3.33
2022-09-28T05:26:40.205Z,4.28
2022-09-28T05:29:06.707Z,5.45
2022-09-28T05:31:33.288Z,2.05
2022-09-28T05:33:59.798Z,4.32
2022-09-28T05:36:27.428Z,3.60
2022-09-28T05:38:54.755Z,3.47
2022-09-28T05:41:21.341Z,3.45
2022-09-28T05:43:47.912Z,3.70
2022-09-28T05:46:14.710Z,2.97
2022-09-28T05:48:41.378Z,4.70
2022-09-28T05:51:10.403Z,6.50
2022-09-28T05:53:37.040Z,2.88
2022-09-28T05:56:03.695Z,3.33
2022-09-28T05:58:30.401Z,6.13
2022-09-28T06:00:57.938Z,3.03
2022-09-28T06:03:25.376Z,4.55
2022-09-28T06:05:51.983Z,5.25
2022-09-28T06:08:18.550Z,5.07
2022-09-28T06:10:45.523Z,4.60
2022-09-28T06:13:12.203Z,4.60
2022-09-28T06:15:39.230Z,4.38
2022-09-28T06:18:09.427Z,4.35
2022-09-28T06:20:42.468Z,3.60
2022-09-28T06:23:10.849Z,4.28
2022-09-28T06:25:38.148Z,3.77
2022-09-28T06:28:14.989Z,4.13
2022-09-28T06:30:43.059Z,2.33
2022-09-28T06:33:12.739Z,3.20
2022-09-28T06:35:40.707Z,3.78
2022-09-28T06:38:11.089Z,2.20
2022-09-28T06:40:39.109Z,3.55
2022-09-28T06:43:11.308Z,3.00
2022-09-28T06:45:38.886Z,2.60
2022-09-28T06:48:06.215Z,3.95
2022-09-28T06:50:40.266Z,2.80
2022-09-28T06:53:09.469Z,3.53
2022-09-28T06:55:42.165Z,2.70
2022-09-28T06:58:13.697Z,5.78
2022-09-28T07:00:41.240Z,4.80
2022-09-28T07:03:12.275Z,3.97
2022-09-28T07:05:42.617Z,3.22
2022-09-28T07:08:09.273Z,2.10
2022-09-28T07:10:36.707Z,5.93
2022-09-28T07:13:05.789Z,3.33
2022-09-28T07:15:33.175Z,4.37
2022-09-28T07:18:05.314Z,7.47
2022-09-28T07:20:43.817Z,7.25
2022-09-28T07:23:19.297Z,2.85
2022-09-28T07:25:47.934Z,4.13
2022-09-28T07:28:15.356Z,4.50
2022-09-28T07:30:43.345Z,4.55
2022-09-28T07:33:12.656Z,13.85
2022-09-28T07:35:39.502Z,5.20
2022-09-28T07:38:07.524Z,21.60
2022-09-28T07:40:54.225Z,5.67
2022-09-28T07:43:21.440Z,4.72
2022-09-28T07:45:49.590Z,3.05
2022-09-28T07:48:17.899Z,4.70
2022-09-28T07:51:00.178Z,3.60
2022-09-28T07:53:27.162Z,7.73
2022-09-28T07:55:55.684Z,4.18
2022-09-28T07:58:23.147Z,3.00
2022-09-28T08:00:50.587Z,5.68
2022-09-28T08:03:18.671Z,3.13
2022-09-28T08:05:47.571Z,5.47
2022-09-28T08:08:24.347Z,5.70
2022-09-28T08:13:23.474Z,4.20
2022-09-28T08:15:54.644Z,3.88
2022-09-28T08:18:23.425Z,3.70
2022-09-28T08:21:11.444Z,4.78
2022-09-28T08:23:38.563Z,4.63
2022-09-28T08:26:05.214Z,3.13
2022-09-28T08:28:31.734Z,4.82
2022-09-28T08:31:01.605Z,3.20
2022-09-28T08:33:28.690Z,3.88
2022-09-28T08:35:59.861Z,5.95
2022-09-28T08:38:27.807Z,7.38
2022-09-28T08:41:12.905Z,6.13
2022-09-28T08:44:00.816Z,4.60
2022-09-28T08:46:37.404Z,3.63
2022-09-28T08:49:25.013Z,5.07
2022-09-28T08:52:03.390Z,5.20
2022-09-28T08:54:39.045Z,3.65
2022-09-28T08:57:14.581Z,5.50
2022-09-28T08:59:54.440Z,3.58
2022-09-28T09:02:27.327Z,2.53
2022-09-28T09:04:54.669Z,3.05
2022-09-28T09:07:27.558Z,3.45
2022-09-28T09:10:18.328Z,4.03
2022-09-28T09:13:20.311Z,2.88
2022-09-28T09:15:55.160Z,3.20
2022-09-28T09:18:44.050Z,3.22
2022-09-28T09:21:48.772Z,3.13
2022-09-28T09:24:34.766Z,2.67
2022-09-28T09:27:24.228Z,3.72
2022-09-28T09:30:06.709Z,2.50
2022-09-28T09:32:33.278Z,2.65
2022-09-28T09:35:06.249Z,2.50
2022-09-28T09:37:48.048Z,3.27
2022-09-28T09:40:26.778Z,3.80
2022-09-28T09:43:31.788Z,3.20
2022-09-28T09:46:19.924Z,2.95
2022-09-28T09:48:58.608Z,4.28
2022-09-28T09:51:36.546Z,3.73
2022-09-28T09:54:18.528Z,2.45
2022-09-28T09:56:55.039Z,3.67
2022-09-28T09:59:35.056Z,4.65
2022-09-28T10:02:11.754Z,3.72
2022-09-28T10:04:46.698Z,2.70
2022-09-28T10:07:23.488Z,1.95
2022-09-28T10:09:52.843Z,4.30
2022-09-28T10:12:22.113Z,2.65
2022-09-28T10:14:49.546Z,4.60
2022-09-28T10:17:19.759Z,2.83
2022-09-28T10:19:47.262Z,3.17
2022-09-28T10:22:17.985Z,3.25
2022-09-28T10:24:51.042Z,3.47
2022-09-28T10:27:22.954Z,2.53
2022-09-28T10:29:57.091Z,3.57
2022-09-28T10:32:26.543Z,3.85
2022-09-28T10:35:06.433Z,3.75
2022-09-28T10:37:32.960Z,2.15
2022-09-28T10:39:59.500Z,3.55
2022-09-28T10:42:29.771Z,2.83
2022-09-28T10:45:15.453Z,3.05
2022-09-28T10:47:45.244Z,3.28
2022-09-28T10:50:25.090Z,3.80
2022-09-28T10:52:51.650Z,2.75
2022-09-28T10:55:21.253Z,2.37
2022-09-28T10:57:48.316Z,3.40
2022-09-28T11:00:31.910Z,2.72
2022-09-28T11:02:59.676Z,2.72
2022-09-28T11:05:27.979Z,5.18
2022-09-28T11:07:57.006Z,3.57
2022-09-28T11:10:26.338Z,2.40
2022-09-28T11:12:54.329Z,3.35
2022-09-28T11:15:26.037Z,2.75
2022-09-28T11:17:52.713Z,2.63
2022-09-28T11:20:27.945Z,3.60
2022-09-28T11:23:00.355Z,2.63
2022-09-28T11:25:32.125Z,3.55
2022-09-28T11:28:05.779Z,4.00
2022-09-28T11:30:42.489Z,2.63
2022-09-28T11:33:28.620Z,2.43
2022-09-28T11:36:13.558Z,2.20
2022-09-28T11:39:11.635Z,2.13
2022-09-28T11:41:38.216Z,3.95
2022-09-28T11:44:13.850Z,3.78
2022-09-28T11:47:04.806Z,2.63
2022-09-28T11:49:45.532Z,3.25
2022-09-28T11:52:44.280Z,2.88
2022-09-28T11:55:15.645Z,4.25
2022-09-28T11:57:48.821Z,2.22
2022-09-28T12:00:22.430Z,2.77
2022-09-28T12:02:58.043Z,3.70
2022-09-28T12:05:39.096Z,5.22
2022-09-28T12:08:27.589Z,5.18
2022-09-28T12:11:22.004Z,2.55
2022-09-28T12:13:52.763Z,2.80
2022-09-28T12:17:00.849Z,3.50
2022-09-28T12:19:25.806Z,2.53
2022-09-28T12:21:56.805Z,3.80
2022-09-28T12:24:32.255Z,2.17
2022-09-28T12:27:07.658Z,2.80
2022-09-28T12:29:44.155Z,2.35
2022-09-28T12:32:40.318Z,5.05
2022-09-28T12:35:17.223Z,2.90
2022-09-28T12:37:56.450Z,2.15
2022-09-28T12:41:13.116Z,3.57
2022-09-28T12:44:08.874Z,2.33
2022-09-28T12:46:59.705Z,3.65
2022-09-28T12:50:45.707Z,1.65
2022-09-28T12:55:28.314Z,1.80
2022-09-28T12:58:18.295Z,3.90
2022-09-28T13:01:27.473Z,2.53
2022-09-28T13:04:00.153Z,2.05
2022-09-28T13:06:42.702Z,2.13
2022-09-28T13:09:20.390Z,2.47
2022-09-28T13:12:26.719Z,2.03
2022-09-28T13:15:16.519Z,3.10
2022-09-28T13:17:56.350Z,2.05
2022-09-28T13:20:39.790Z,3.40
2022-09-28T13:23:25.577Z,2.20
2022-09-28T13:26:00.490Z,2.28
2022-09-28T13:28:28.346Z,1.80
2022-09-28T13:33:36.921Z,2.22
2022-09-28T13:36:26.557Z,2.03
2022-09-28T13:38:54.904Z,2.70
2022-09-28T13:41:28.992Z,3.28
2022-09-28T13:44:10.872Z,1.92
2022-09-28T13:47:01.938Z,1.25
2022-09-28T13:49:28.471Z,0.90
2022-09-28T13:52:13.663Z,1.02
2022-09-28T13:54:50.983Z,0.90
2022-09-28T13:57:21.390Z,1.70
2022-09-28T13:59:58.884Z,3.63
2022-09-28T14:02:34.789Z,2.67
2022-09-28T14:05:06.912Z,1.20
2022-09-28T14:07:36.426Z,2.70
2022-09-28T14:10:20.932Z,1.98
2022-09-28T14:12:52.116Z,2.25
2022-09-28T14:15:30.749Z,1.33
2022-09-28T14:18:23.507Z,2.00
2022-09-28T14:21:07.250Z,1.42
2022-09-28T14:23:50.691Z,1.73
2022-09-28T14:26:17.220Z,1.42
2022-09-28T14:29:28.392Z,2.50
2022-09-28T14:31:58.265Z,2.45
2022-09-28T14:34:34.298Z,1.98
2022-09-28T14:37:23.890Z,2.25
2022-09-28T14:40:09.794Z,2.55
2022-09-28T14:42:36.453Z,2.33
2022-09-28T14:45:06.331Z,2.30
2022-09-28T14:47:39.251Z,2.23
2022-09-28T14:50:26.557Z,3.13
2022-09-28T14:52:55.051Z,2.75
2022-09-28T14:55:31.128Z,5.40
2022-09-28T14:57:59.108Z,4.50
2022-09-28T15:00:30.498Z,2.83
2022-09-28T15:03:03.220Z,1.48
2022-09-28T15:05:44.083Z,4.13
2022-09-28T15:08:11.938Z,2.10
2022-09-28T15:10:45.495Z,2.13
2022-09-28T15:13:21.405Z,2.93
2022-09-28T15:15:51.893Z,1.75
2022-09-28T15:18:46.371Z,1.27
2022-09-28T15:21:13.879Z,2.13
2022-09-28T15:23:43.313Z,1.25
2022-09-28T15:26:27.431Z,2.03
2022-09-28T15:28:54.852Z,3.60
2022-09-28T15:31:25.608Z,1.45
2022-09-28T15:34:11.374Z,3.85
2022-09-28T15:36:41.223Z,1.98
2022-09-28T15:39:34.196Z,1.20
2022-09-28T15:42:01.141Z,1.10
2022-09-28T15:44:44.556Z,1.77
2022-09-28T15:47:16.834Z,1.75
2022-09-28T15:50:04.700Z,1.40
2022-09-28T15:52:39.827Z,1.10
2022-09-28T15:55:37.794Z,1.42
2022-09-28T15:58:08.981Z,1.60
2022-09-28T16:00:35.839Z,1.23
2022-09-28T16:03:05.517Z,1.63
2022-09-28T16:05:35.794Z,1.30
2022-09-28T16:08:04.316Z,1.38
2022-09-28T16:10:33.682Z,2.35
2022-09-28T16:13:26.625Z,1.70
2022-09-28T16:16:00.397Z,1.23
2022-09-28T16:18:30.202Z,2.50
2022-09-28T16:21:34.667Z,2.13
2022-09-28T16:24:01.304Z,1.23
2022-09-28T16:26:33.313Z,1.80
2022-09-28T16:29:02.033Z,2.97
2022-09-28T16:31:34.428Z,2.60
2022-09-28T16:34:16.443Z,1.95
2022-09-28T16:36:45.543Z,2.65
2022-09-28T16:39:13.528Z,1.63
2022-09-28T16:41:44.180Z,1.60
2022-09-28T16:44:27.054Z,3.43
2022-09-28T16:46:57.766Z,2.28
2022-09-28T16:49:25.568Z,2.25
2022-09-28T16:51:52.868Z,2.40
2022-09-28T16:54:40.777Z,2.35
2022-09-28T16:57:10.489Z,3.33
2022-09-28T16:59:39.849Z,3.60
2022-09-28T17:02:46.249Z,2.83
2022-09-28T17:05:15.805Z,3.67
2022-09-28T17:07:44.110Z,5.80
2022-09-28T17:10:26.422Z,4.27
2022-09-28T17:12:52.987Z,2.88
2022-09-28T17:15:19.684Z,3.13
2022-09-28T17:17:47.200Z,3.45
2022-09-28T17:20:28.132Z,3.92
2022-09-28T17:22:54.697Z,2.80
2022-09-28T17:25:24.045Z,4.22
2022-09-28T17:27:51.804Z,4.32
2022-09-28T17:30:20.312Z,3.97
2022-09-28T17:32:50.139Z,5.63
2022-09-28T17:35:25.904Z,5.80
2022-09-28T17:37:53.249Z,2.90
2022-09-28T17:40:23.122Z,4.18
2022-09-28T17:42:49.711Z,13.27
2022-09-28T17:45:17.098Z,3.30
2022-09-28T17:47:44.450Z,3.83
2022-09-28T17:50:16.973Z,4.93
2022-09-28T17:52:43.456Z,4.40
2022-09-28T17:55:09.992Z,4.57
2022-09-28T17:57:36.519Z,3.92
2022-09-28T18:00:03.857Z,5.17
2022-09-28T18:02:30.626Z,3.70
2022-09-28T18:04:57.575Z,4.15
2022-09-28T18:07:24.343Z,3.80
2022-09-28T18:09:56.767Z,5.25
2022-09-28T18:12:25.095Z,6.00
2022-09-28T18:14:52.196Z,5.43
2022-09-28T18:17:18.767Z,5.80
2022-09-28T18:19:45.350Z,4.80
2022-09-28T18:22:11.858Z,6.22
2022-09-28T18:24:39.187Z,5.43
2022-09-28T18:27:05.732Z,6.45
2022-09-28T18:29:33.454Z,5.70
2022-09-28T18:32:00.578Z,5.32
2022-09-28T18:34:27.101Z,6.38
2022-09-28T18:36:53.716Z,6.13
2022-09-28T18:39:20.594Z,6.20
2022-09-28T18:41:47.211Z,7.65
2022-09-28T18:44:13.769Z,7.22
2022-09-28T18:46:42.635Z,5.53
2022-09-28T18:49:09.261Z,5.37
2022-09-28T18:51:35.767Z,6.35
2022-09-28T18:54:07.186Z,4.95
2022-09-28T18:56:37.176Z,4.65
2022-09-28T18:59:11.899Z,27.80
2022-09-28T19:01:38.889Z,26.43
2022-09-28T19:04:07.932Z,13.82
2022-09-28T19:06:37.055Z,8.50
2022-09-28T19:09:04.032Z,6.45
2022-09-28T19:11:30.776Z,6.22
2022-09-28T19:13:57.324Z,9.53
2022-09-28T19:16:28.955Z,8.05
2022-09-28T19:18:57.525Z,9.38
2022-09-28T19:21:24.602Z,10.70
2022-09-28T19:23:53.631Z,16.00
2022-09-28T19:26:27.965Z,14.43
2022-09-28T19:28:56.390Z,10.73
2022-09-28T19:31:23.209Z,10.27
2022-09-28T19:33:50.487Z,15.88
2022-09-28T19:36:23.717Z,14.77
2022-09-28T19:38:52.345Z,12.30
2022-09-28T19:41:43.048Z,12.40
2022-09-28T19:44:15.827Z,11.05
2022-09-28T19:46:42.639Z,9.30
2022-09-28T19:49:19.301Z,11.10
2022-09-28T19:52:10.928Z,8.80
2022-09-28T19:54:36.777Z,9.68
2022-09-28T19:57:08.971Z,8.38
2022-09-28T19:59:37.340Z,7.97
2022-09-28T20:02:05.497Z,6.32
2022-09-28T20:04:32.007Z,6.30
2022-09-28T20:06:58.524Z,5.97
2022-09-28T20:09:25.119Z,7.20
2022-09-28T20:11:51.932Z,7.18
2022-09-28T20:14:19.198Z,7.25
2022-09-28T20:16:48.532Z,8.53
2022-09-28T20:19:15.311Z,8.45
2022-09-28T20:21:41.949Z,8.32
2022-09-28T20:24:11.423Z,8.55
2022-09-28T20:26:37.997Z,8.65
2022-09-28T20:29:06.196Z,7.80
2022-09-28T20:31:33.383Z,7.25
2022-09-28T20:33:59.972Z,11.00
2022-09-28T20:36:26.697Z,9.13
2022-09-28T20:38:54.711Z,8.63
2022-09-28T20:41:23.882Z,8.03
2022-09-28T20:43:55.509Z,7.57
2022-09-28T20:46:22.785Z,10.00
2022-09-28T20:48:54.923Z,10.65
2022-09-28T20:51:22.164Z,8.70
2022-09-28T20:53:51.556Z,8.27
2022-09-28T20:56:21.746Z,10.45
2022-09-28T20:58:52.369Z,9.73
2022-09-28T21:01:21.332Z,8.52
2022-09-28T21:03:50.786Z,11.15
2022-09-28T21:06:19.140Z,9.60
2022-09-28T21:08:46.409Z,9.73
2022-09-28T21:11:14.133Z,8.60
2022-09-28T21:13:42.912Z,7.95
2022-09-28T21:16:11.538Z,9.57
2022-09-28T21:18:39.105Z,9.37
2022-09-28T21:21:11.666Z,8.45
2022-09-28T21:23:39.053Z,9.98
2022-09-28T21:26:11.719Z,9.73
2022-09-28T21:28:39.255Z,9.15
2022-09-28T21:31:08.451Z,9.70
2022-09-28T21:33:35.193Z,10.25
2022-09-28T21:36:02.662Z,10.30
2022-09-28T21:38:30.080Z,10.30
2022-09-28T21:40:58.244Z,10.95
2022-09-28T21:43:26.323Z,9.30
2022-09-28T21:45:54.642Z,9.93
2022-09-28T21:48:23.126Z,10.57
2022-09-28T21:51:02.677Z,12.23
2022-09-28T21:53:32.411Z,10.52
2022-09-28T21:56:00.191Z,9.87
2022-09-28T21:58:32.088Z,11.45
